sensor_id;sensor_type;location;lat;lon;timestamp;temperature;humidity
75451;DHT22;64029;48.244;9.188;2024-02-16T00:02:02;4.90;93.60
75451;DHT22;64029;48.244;9.188;2024-02-16T00:04:29;4.90;93.70
75451;DHT22;64029;48.244;9.188;2024-02-16T00:06:56;4.90;93.70
75451;DHT22;64029;48.244;9.188;2024-02-16T00:09:23;4.80;93.60
75451;DHT22;64029;48.244;9.188;2024-02-16T00:11:50;4.80;93.60
75451;DHT22;64029;48.244;9.188;2024-02-16T00:14:18;4.80;93.70
75451;DHT22;64029;48.244;9.188;2024-02-16T00:16:47;4.80;93.70
75451;DHT22;64029;48.244;9.188;2024-02-16T00:19:14;4.80;93.70
75451;DHT22;64029;48.244;9.188;2024-02-16T00:21:41;4.80;93.70
75451;DHT22;64029;48.244;9.188;2024-02-16T00:24:08;4.70;93.70
75451;DHT22;64029;48.244;9.188;2024-02-16T00:26:35;4.70;93.70
75451;DHT22;64029;48.244;9.188;2024-02-16T00:29:02;4.70;93.70
75451;DHT22;64029;48.244;9.188;2024-02-16T00:31:30;4.70;93.70
75451;DHT22;64029;48.244;9.188;2024-02-16T00:33:58;4.70;93.70
75451;DHT22;64029;48.244;9.188;2024-02-16T00:36:26;4.70;93.80
75451;DHT22;64029;48.244;9.188;2024-02-16T00:38:53;4.70;93.80
75451;DHT22;64029;48.244;9.188;2024-02-16T00:41:21;4.60;93.80
75451;DHT22;64029;48.244;9.188;2024-02-16T00:43:48;4.60;93.80
75451;DHT22;64029;48.244;9.188;2024-02-16T00:46:15;4.60;94.10
75451;DHT22;64029;48.244;9.188;2024-02-16T00:48:41;4.60;93.80
75451;DHT22;64029;48.244;9.188;2024-02-16T00:51:10;4.60;93.70
75451;DHT22;64029;48.244;9.188;2024-02-16T00:53:37;4.60;93.80
75451;DHT22;64029;48.244;9.188;2024-02-16T00:56:04;4.60;93.80
75451;DHT22;64029;48.244;9.188;2024-02-16T00:58:32;4.60;93.80
75451;DHT22;64029;48.244;9.188;2024-02-16T01:00:59;4.60;93.90
75451;DHT22;64029;48.244;9.188;2024-02-16T01:03:26;4.60;93.80
75451;DHT22;64029;48.244;9.188;2024-02-16T01:05:53;4.60;93.90
75451;DHT22;64029;48.244;9.188;2024-02-16T01:08:21;4.60;93.90
75451;DHT22;64029;48.244;9.188;2024-02-16T01:10:48;4.60;93.90
75451;DHT22;64029;48.244;9.188;2024-02-16T01:13:15;4.60;93.90
75451;DHT22;64029;48.244;9.188;2024-02-16T01:15:42;4.60;93.90
75451;DHT22;64029;48.244;9.188;2024-02-16T01:18:09;4.60;94.00
75451;DHT22;64029;48.244;9.188;2024-02-16T01:20:36;4.60;94.00
75451;DHT22;64029;48.244;9.188;2024-02-16T01:23:03;4.60;94.10
75451;DHT22;64029;48.244;9.188;2024-02-16T01:25:32;4.60;94.00
75451;DHT22;64029;48.244;9.188;2024-02-16T01:27:59;4.60;94.00
75451;DHT22;64029;48.244;9.188;2024-02-16T01:30:26;4.60;93.90
75451;DHT22;64029;48.244;9.188;2024-02-16T01:32:52;4.60;93.90
75451;DHT22;64029;48.244;9.188;2024-02-16T01:35:19;4.60;93.90
75451;DHT22;64029;48.244;9.188;2024-02-16T01:37:47;4.60;93.90
75451;DHT22;64029;48.244;9.188;2024-02-16T01:40:14;4.60;94.00
75451;DHT22;64029;48.244;9.188;2024-02-16T01:42:44;4.60;94.10
75451;DHT22;64029;48.244;9.188;2024-02-16T01:45:11;4.60;94.10
75451;DHT22;64029;48.244;9.188;2024-02-16T01:47:39;4.60;94.10
75451;DHT22;64029;48.244;9.188;2024-02-16T01:50:09;4.60;94.10
75451;DHT22;64029;48.244;9.188;2024-02-16T01:52:36;4.60;94.20
75451;DHT22;64029;48.244;9.188;2024-02-16T01:55:04;4.60;94.20
75451;DHT22;64029;48.244;9.188;2024-02-16T01:57:33;4.60;94.10
75451;DHT22;64029;48.244;9.188;2024-02-16T02:00:04;4.50;94.10
75451;DHT22;64029;48.244;9.188;2024-02-16T02:02:33;4.60;94.20
75451;DHT22;64029;48.244;9.188;2024-02-16T02:05:01;4.60;94.20
75451;DHT22;64029;48.244;9.188;2024-02-16T02:07:28;4.50;94.10
75451;DHT22;64029;48.244;9.188;2024-02-16T02:09:55;4.60;94.30
75451;DHT22;64029;48.244;9.188;2024-02-16T02:12:22;4.50;94.30
75451;DHT22;64029;48.244;9.188;2024-02-16T02:14:49;4.60;94.30
75451;DHT22;64029;48.244;9.188;2024-02-16T02:17:18;4.50;94.30
75451;DHT22;64029;48.244;9.188;2024-02-16T02:19:45;4.50;94.30
75451;DHT22;64029;48.244;9.188;2024-02-16T02:22:16;4.50;94.30
75451;DHT22;64029;48.244;9.188;2024-02-16T02:24:43;4.60;94.40
75451;DHT22;64029;48.244;9.188;2024-02-16T02:27:11;4.50;94.70
75451;DHT22;64029;48.244;9.188;2024-02-16T02:29:38;4.50;94.40
75451;DHT22;64029;48.244;9.188;2024-02-16T02:32:06;4.50;94.50
75451;DHT22;64029;48.244;9.188;2024-02-16T02:34:33;4.50;94.50
75451;DHT22;64029;48.244;9.188;2024-02-16T02:37:01;4.50;94.40
75451;DHT22;64029;48.244;9.188;2024-02-16T02:39:31;4.50;94.70
75451;DHT22;64029;48.244;9.188;2024-02-16T02:41:58;4.50;94.50
75451;DHT22;64029;48.244;9.188;2024-02-16T02:44:25;4.50;94.60
75451;DHT22;64029;48.244;9.188;2024-02-16T02:46:52;4.50;94.70
75451;DHT22;64029;48.244;9.188;2024-02-16T02:49:19;4.50;94.70
75451;DHT22;64029;48.244;9.188;2024-02-16T02:51:46;4.50;94.70
75451;DHT22;64029;48.244;9.188;2024-02-16T02:54:13;4.50;94.70
75451;DHT22;64029;48.244;9.188;2024-02-16T02:56:41;4.50;94.70
75451;DHT22;64029;48.244;9.188;2024-02-16T02:59:08;4.50;94.80
75451;DHT22;64029;48.244;9.188;2024-02-16T03:01:36;4.50;94.80
75451;DHT22;64029;48.244;9.188;2024-02-16T03:04:03;4.50;94.70
75451;DHT22;64029;48.244;9.188;2024-02-16T03:06:30;4.50;94.70
75451;DHT22;64029;48.244;9.188;2024-02-16T03:08:57;4.50;94.80
75451;DHT22;64029;48.244;9.188;2024-02-16T03:11:24;4.40;94.80
75451;DHT22;64029;48.244;9.188;2024-02-16T03:13:52;4.50;95.20
75451;DHT22;64029;48.244;9.188;2024-02-16T03:16:19;4.50;94.90
75451;DHT22;64029;48.244;9.188;2024-02-16T03:18:46;4.50;94.90
75451;DHT22;64029;48.244;9.188;2024-02-16T03:21:13;4.50;95.00
75451;DHT22;64029;48.244;9.188;2024-02-16T03:23:42;4.50;95.10
75451;DHT22;64029;48.244;9.188;2024-02-16T03:26:14;4.40;95.00
75451;DHT22;64029;48.244;9.188;2024-02-16T03:28:43;4.40;95.00
75451;DHT22;64029;48.244;9.188;2024-02-16T03:31:16;4.50;95.00
75451;DHT22;64029;48.244;9.188;2024-02-16T03:33:43;4.40;94.90
75451;DHT22;64029;48.244;9.188;2024-02-16T03:36:10;4.40;95.00
75451;DHT22;64029;48.244;9.188;2024-02-16T03:38:38;4.40;95.00
75451;DHT22;64029;48.244;9.188;2024-02-16T03:41:07;4.40;95.00
75451;DHT22;64029;48.244;9.188;2024-02-16T03:43:34;4.40;95.00
75451;DHT22;64029;48.244;9.188;2024-02-16T03:46:01;4.40;95.10
75451;DHT22;64029;48.244;9.188;2024-02-16T03:48:30;4.40;95.00
75451;DHT22;64029;48.244;9.188;2024-02-16T03:50:57;4.40;95.00
75451;DHT22;64029;48.244;9.188;2024-02-16T03:53:25;4.40;95.10
75451;DHT22;64029;48.244;9.188;2024-02-16T03:55:52;4.40;95.10
75451;DHT22;64029;48.244;9.188;2024-02-16T03:58:19;4.40;95.10
75451;DHT22;64029;48.244;9.188;2024-02-16T04:00:46;4.40;95.10
75451;DHT22;64029;48.244;9.188;2024-02-16T04:03:14;4.40;95.10
75451;DHT22;64029;48.244;9.188;2024-02-16T04:05:42;4.30;95.10
75451;DHT22;64029;48.244;9.188;2024-02-16T04:08:09;4.30;95.10
75451;DHT22;64029;48.244;9.188;2024-02-16T04:10:36;4.30;95.20
75451;DHT22;64029;48.244;9.188;2024-02-16T04:13:03;4.30;95.10
75451;DHT22;64029;48.244;9.188;2024-02-16T04:15:30;4.30;95.10
75451;DHT22;64029;48.244;9.188;2024-02-16T04:17:57;4.30;95.10
75451;DHT22;64029;48.244;9.188;2024-02-16T04:20:24;4.30;95.10
75451;DHT22;64029;48.244;9.188;2024-02-16T04:22:53;4.30;95.10
75451;DHT22;64029;48.244;9.188;2024-02-16T04:25:20;4.30;95.10
75451;DHT22;64029;48.244;9.188;2024-02-16T04:27:46;4.30;95.10
75451;DHT22;64029;48.244;9.188;2024-02-16T04:30:13;4.30;95.10
75451;DHT22;64029;48.244;9.188;2024-02-16T04:32:40;4.20;95.10
75451;DHT22;64029;48.244;9.188;2024-02-16T04:35:08;4.20;95.00
75451;DHT22;64029;48.244;9.188;2024-02-16T04:37:37;4.20;95.00
75451;DHT22;64029;48.244;9.188;2024-02-16T04:40:06;4.20;95.10
75451;DHT22;64029;48.244;9.188;2024-02-16T04:42:33;4.20;95.10
75451;DHT22;64029;48.244;9.188;2024-02-16T04:45:00;4.20;95.10
75451;DHT22;64029;48.244;9.188;2024-02-16T04:47:27;4.20;95.10
75451;DHT22;64029;48.244;9.188;2024-02-16T04:49:54;4.20;95.10
75451;DHT22;64029;48.244;9.188;2024-02-16T04:52:20;4.20;95.00
75451;DHT22;64029;48.244;9.188;2024-02-16T04:54:47;4.20;95.10
75451;DHT22;64029;48.244;9.188;2024-02-16T04:57:15;4.20;95.00
75451;DHT22;64029;48.244;9.188;2024-02-16T04:59:42;4.20;95.00
75451;DHT22;64029;48.244;9.188;2024-02-16T05:02:09;4.20;95.10
75451;DHT22;64029;48.244;9.188;2024-02-16T05:04:36;4.20;95.10
75451;DHT22;64029;48.244;9.188;2024-02-16T05:07:03;4.20;95.20
75451;DHT22;64029;48.244;9.188;2024-02-16T05:09:32;4.20;95.20
75451;DHT22;64029;48.244;9.188;2024-02-16T05:11:59;4.20;95.20
75451;DHT22;64029;48.244;9.188;2024-02-16T05:14:27;4.20;95.30
75451;DHT22;64029;48.244;9.188;2024-02-16T05:16:54;4.20;95.30
75451;DHT22;64029;48.244;9.188;2024-02-16T05:19:21;4.20;95.30
75451;DHT22;64029;48.244;9.188;2024-02-16T05:21:48;4.20;95.30
75451;DHT22;64029;48.244;9.188;2024-02-16T05:24:14;4.20;95.40
75451;DHT22;64029;48.244;9.188;2024-02-16T05:26:41;4.20;95.30
75451;DHT22;64029;48.244;9.188;2024-02-16T05:29:09;4.20;95.40
75451;DHT22;64029;48.244;9.188;2024-02-16T05:31:37;4.20;95.50
75451;DHT22;64029;48.244;9.188;2024-02-16T05:34:04;4.20;95.50
75451;DHT22;64029;48.244;9.188;2024-02-16T05:36:30;4.20;95.50
75451;DHT22;64029;48.244;9.188;2024-02-16T05:39:01;4.20;95.50
75451;DHT22;64029;48.244;9.188;2024-02-16T05:41:45;4.20;95.50
75451;DHT22;64029;48.244;9.188;2024-02-16T05:44:12;4.10;95.50
75451;DHT22;64029;48.244;9.188;2024-02-16T05:46:40;4.10;95.50
75451;DHT22;64029;48.244;9.188;2024-02-16T05:49:07;4.10;95.50
75451;DHT22;64029;48.244;9.188;2024-02-16T05:51:36;4.10;95.40
75451;DHT22;64029;48.244;9.188;2024-02-16T05:54:04;4.10;95.60
75451;DHT22;64029;48.244;9.188;2024-02-16T05:56:33;4.10;95.50
75451;DHT22;64029;48.244;9.188;2024-02-16T05:59:02;4.10;95.80
75451;DHT22;64029;48.244;9.188;2024-02-16T06:01:29;4.10;95.40
75451;DHT22;64029;48.244;9.188;2024-02-16T06:03:57;4.10;95.40
75451;DHT22;64029;48.244;9.188;2024-02-16T06:06:24;4.00;95.30
75451;DHT22;64029;48.244;9.188;2024-02-16T06:08:51;4.00;95.30
75451;DHT22;64029;48.244;9.188;2024-02-16T06:11:18;4.00;95.20
75451;DHT22;64029;48.244;9.188;2024-02-16T06:13:44;4.00;95.20
75451;DHT22;64029;48.244;9.188;2024-02-16T06:16:11;4.00;95.20
75451;DHT22;64029;48.244;9.188;2024-02-16T06:18:38;4.00;95.20
75451;DHT22;64029;48.244;9.188;2024-02-16T06:21:06;4.00;95.10
75451;DHT22;64029;48.244;9.188;2024-02-16T06:23:33;4.00;95.10
75451;DHT22;64029;48.244;9.188;2024-02-16T06:26:00;3.90;95.00
75451;DHT22;64029;48.244;9.188;2024-02-16T06:28:27;3.90;95.00
75451;DHT22;64029;48.244;9.188;2024-02-16T06:30:54;3.90;95.10
75451;DHT22;64029;48.244;9.188;2024-02-16T06:33:21;3.90;95.10
75451;DHT22;64029;48.244;9.188;2024-02-16T06:35:48;3.90;95.00
75451;DHT22;64029;48.244;9.188;2024-02-16T06:38:17;3.90;95.00
75451;DHT22;64029;48.244;9.188;2024-02-16T06:40:43;3.90;95.00
75451;DHT22;64029;48.244;9.188;2024-02-16T06:43:10;3.90;95.10
75451;DHT22;64029;48.244;9.188;2024-02-16T06:45:37;3.90;95.00
75451;DHT22;64029;48.244;9.188;2024-02-16T06:48:04;3.90;94.90
75451;DHT22;64029;48.244;9.188;2024-02-16T06:50:31;3.90;94.90
75451;DHT22;64029;48.244;9.188;2024-02-16T06:52:58;3.90;95.00
75451;DHT22;64029;48.244;9.188;2024-02-16T06:55:26;3.90;95.20
75451;DHT22;64029;48.244;9.188;2024-02-16T06:57:54;3.90;95.10
75451;DHT22;64029;48.244;9.188;2024-02-16T07:00:21;3.90;95.20
75451;DHT22;64029;48.244;9.188;2024-02-16T07:02:48;3.90;95.20
75451;DHT22;64029;48.244;9.188;2024-02-16T07:05:15;3.90;95.30
75451;DHT22;64029;48.244;9.188;2024-02-16T07:07:43;3.90;95.40
75451;DHT22;64029;48.244;9.188;2024-02-16T07:10:10;3.90;95.40
75451;DHT22;64029;48.244;9.188;2024-02-16T07:12:40;3.90;95.50
75451;DHT22;64029;48.244;9.188;2024-02-16T07:15:08;3.90;95.50
75451;DHT22;64029;48.244;9.188;2024-02-16T07:17:35;3.90;95.60
75451;DHT22;64029;48.244;9.188;2024-02-16T07:20:02;3.90;95.50
75451;DHT22;64029;48.244;9.188;2024-02-16T07:22:30;3.90;95.60
75451;DHT22;64029;48.244;9.188;2024-02-16T07:24:57;3.90;95.60
75451;DHT22;64029;48.244;9.188;2024-02-16T07:27:25;3.90;95.50
75451;DHT22;64029;48.244;9.188;2024-02-16T07:29:53;3.90;95.70
75451;DHT22;64029;48.244;9.188;2024-02-16T07:32:20;4.00;95.80
75451;DHT22;64029;48.244;9.188;2024-02-16T07:34:48;4.00;95.80
75451;DHT22;64029;48.244;9.188;2024-02-16T07:37:18;4.00;95.90
75451;DHT22;64029;48.244;9.188;2024-02-16T07:39:45;4.00;96.00
75451;DHT22;64029;48.244;9.188;2024-02-16T07:42:12;4.00;95.90
75451;DHT22;64029;48.244;9.188;2024-02-16T07:44:39;4.00;95.90
75451;DHT22;64029;48.244;9.188;2024-02-16T07:47:07;4.00;95.90
75451;DHT22;64029;48.244;9.188;2024-02-16T07:49:37;4.10;95.90
75451;DHT22;64029;48.244;9.188;2024-02-16T07:52:05;4.10;95.90
75451;DHT22;64029;48.244;9.188;2024-02-16T07:54:32;4.10;95.90
75451;DHT22;64029;48.244;9.188;2024-02-16T07:56:59;4.10;95.90
75451;DHT22;64029;48.244;9.188;2024-02-16T07:59:26;4.10;95.80
75451;DHT22;64029;48.244;9.188;2024-02-16T08:01:53;4.10;95.80
75451;DHT22;64029;48.244;9.188;2024-02-16T08:04:22;4.10;95.80
75451;DHT22;64029;48.244;9.188;2024-02-16T08:06:48;4.20;96.00
75451;DHT22;64029;48.244;9.188;2024-02-16T08:09:15;4.20;96.00
75451;DHT22;64029;48.244;9.188;2024-02-16T08:11:42;4.20;95.90
75451;DHT22;64029;48.244;9.188;2024-02-16T08:14:09;4.20;95.90
75451;DHT22;64029;48.244;9.188;2024-02-16T08:16:36;4.30;96.00
75451;DHT22;64029;48.244;9.188;2024-02-16T08:19:03;4.30;96.20
75451;DHT22;64029;48.244;9.188;2024-02-16T08:21:31;4.30;96.20
75451;DHT22;64029;48.244;9.188;2024-02-16T08:23:58;4.30;96.00
75451;DHT22;64029;48.244;9.188;2024-02-16T08:26:25;4.40;96.10
75451;DHT22;64029;48.244;9.188;2024-02-16T08:28:51;4.40;96.00
75451;DHT22;64029;48.244;9.188;2024-02-16T08:31:19;4.40;95.80
75451;DHT22;64029;48.244;9.188;2024-02-16T08:33:46;4.40;95.80
75451;DHT22;64029;48.244;9.188;2024-02-16T08:36:14;4.50;95.90
75451;DHT22;64029;48.244;9.188;2024-02-16T08:38:42;4.50;95.80
75451;DHT22;64029;48.244;9.188;2024-02-16T08:41:09;4.60;96.30
75451;DHT22;64029;48.244;9.188;2024-02-16T08:43:36;4.60;96.00
75451;DHT22;64029;48.244;9.188;2024-02-16T08:46:03;4.70;97.40
75451;DHT22;64029;48.244;9.188;2024-02-16T08:48:30;4.80;97.80
75451;DHT22;64029;48.244;9.188;2024-02-16T08:50:57;4.80;97.50
75451;DHT22;64029;48.244;9.188;2024-02-16T08:53:24;4.80;97.00
75451;DHT22;64029;48.244;9.188;2024-02-16T08:55:52;4.80;96.90
75451;DHT22;64029;48.244;9.188;2024-02-16T08:58:19;4.90;97.70
75451;DHT22;64029;48.244;9.188;2024-02-16T09:00:46;4.90;97.90
75451;DHT22;64029;48.244;9.188;2024-02-16T09:03:14;5.00;98.50
75451;DHT22;64029;48.244;9.188;2024-02-16T09:05:41;5.00;97.80
75451;DHT22;64029;48.244;9.188;2024-02-16T09:08:09;5.10;97.90
75451;DHT22;64029;48.244;9.188;2024-02-16T09:10:36;5.20;98.80
75451;DHT22;64029;48.244;9.188;2024-02-16T09:13:04;5.20;98.70
75451;DHT22;64029;48.244;9.188;2024-02-16T09:15:31;5.30;98.90
75451;DHT22;64029;48.244;9.188;2024-02-16T09:17:58;5.30;98.80
75451;DHT22;64029;48.244;9.188;2024-02-16T09:20:25;5.50;99.30
75451;DHT22;64029;48.244;9.188;2024-02-16T09:22:52;5.60;99.90
75451;DHT22;64029;48.244;9.188;2024-02-16T09:25:18;5.60;99.10
75451;DHT22;64029;48.244;9.188;2024-02-16T09:27:46;5.70;99.90
75451;DHT22;64029;48.244;9.188;2024-02-16T09:30:15;5.70;99.10
75451;DHT22;64029;48.244;9.188;2024-02-16T09:32:42;5.90;99.90
75451;DHT22;64029;48.244;9.188;2024-02-16T09:35:08;5.80;99.70
75451;DHT22;64029;48.244;9.188;2024-02-16T09:37:38;5.90;99.80
75451;DHT22;64029;48.244;9.188;2024-02-16T09:40:06;6.10;99.90
75451;DHT22;64029;48.244;9.188;2024-02-16T09:42:37;6.20;99.90
75451;DHT22;64029;48.244;9.188;2024-02-16T09:45:06;6.20;99.80
75451;DHT22;64029;48.244;9.188;2024-02-16T09:47:35;6.20;99.60
75451;DHT22;64029;48.244;9.188;2024-02-16T09:50:03;6.60;99.90
75451;DHT22;64029;48.244;9.188;2024-02-16T09:52:31;6.80;99.90
75451;DHT22;64029;48.244;9.188;2024-02-16T09:54:58;6.90;99.90
75451;DHT22;64029;48.244;9.188;2024-02-16T09:57:25;6.90;99.90
75451;DHT22;64029;48.244;9.188;2024-02-16T09:59:52;7.00;99.90
75451;DHT22;64029;48.244;9.188;2024-02-16T10:02:19;6.90;99.60
75451;DHT22;64029;48.244;9.188;2024-02-16T10:04:47;6.90;99.80
75451;DHT22;64029;48.244;9.188;2024-02-16T10:07:14;7.00;99.90
75451;DHT22;64029;48.244;9.188;2024-02-16T10:09:41;7.20;99.90
75451;DHT22;64029;48.244;9.188;2024-02-16T10:12:07;7.40;99.90
75451;DHT22;64029;48.244;9.188;2024-02-16T10:14:35;7.60;99.90
75451;DHT22;64029;48.244;9.188;2024-02-16T10:17:04;7.70;99.90
75451;DHT22;64029;48.244;9.188;2024-02-16T10:19:32;7.60;99.90
75451;DHT22;64029;48.244;9.188;2024-02-16T10:22:09;7.70;99.90
75451;DHT22;64029;48.244;9.188;2024-02-16T10:24:36;7.80;99.90
75451;DHT22;64029;48.244;9.188;2024-02-16T10:27:04;8.00;99.90
75451;DHT22;64029;48.244;9.188;2024-02-16T10:29:32;8.00;99.50
75451;DHT22;64029;48.244;9.188;2024-02-16T10:31:59;7.90;99.50
75451;DHT22;64029;48.244;9.188;2024-02-16T10:34:28;8.10;99.80
75451;DHT22;64029;48.244;9.188;2024-02-16T10:36:57;8.10;99.50
75451;DHT22;64029;48.244;9.188;2024-02-16T10:39:27;8.10;99.50
75451;DHT22;64029;48.244;9.188;2024-02-16T10:41:56;8.20;99.90
75451;DHT22;64029;48.244;9.188;2024-02-16T10:44:23;8.20;99.50
75451;DHT22;64029;48.244;9.188;2024-02-16T10:46:51;8.30;99.70
75451;DHT22;64029;48.244;9.188;2024-02-16T10:49:18;8.40;99.90
75451;DHT22;64029;48.244;9.188;2024-02-16T10:51:47;8.80;99.90
75451;DHT22;64029;48.244;9.188;2024-02-16T10:54:18;8.90;99.80
75451;DHT22;64029;48.244;9.188;2024-02-16T10:56:48;8.90;99.40
75451;DHT22;64029;48.244;9.188;2024-02-16T10:59:16;8.90;99.90
75451;DHT22;64029;48.244;9.188;2024-02-16T11:01:44;9.00;99.90
75451;DHT22;64029;48.244;9.188;2024-02-16T11:04:13;9.40;99.90
75451;DHT22;64029;48.244;9.188;2024-02-16T11:06:47;9.40;99.10
75451;DHT22;64029;48.244;9.188;2024-02-16T11:09:26;9.20;99.40
75451;DHT22;64029;48.244;9.188;2024-02-16T11:11:58;9.40;99.80
75451;DHT22;64029;48.244;9.188;2024-02-16T11:14:34;9.60;99.40
75451;DHT22;64029;48.244;9.188;2024-02-16T11:17:01;9.90;98.20
75451;DHT22;64029;48.244;9.188;2024-02-16T11:19:29;9.60;98.50
75451;DHT22;64029;48.244;9.188;2024-02-16T11:21:57;9.90;98.30
75451;DHT22;64029;48.244;9.188;2024-02-16T11:24:31;10.10;96.40
75451;DHT22;64029;48.244;9.188;2024-02-16T11:27:01;10.00;96.30
75451;DHT22;64029;48.244;9.188;2024-02-16T11:29:31;10.20;95.70
75451;DHT22;64029;48.244;9.188;2024-02-16T11:31:59;10.30;94.90
75451;DHT22;64029;48.244;9.188;2024-02-16T11:34:26;10.10;95.20
75451;DHT22;64029;48.244;9.188;2024-02-16T11:36:54;10.20;94.80
75451;DHT22;64029;48.244;9.188;2024-02-16T11:39:22;10.50;93.00
75451;DHT22;64029;48.244;9.188;2024-02-16T11:42:00;10.50;93.10
75451;DHT22;64029;48.244;9.188;2024-02-16T11:44:29;10.40;93.80
75451;DHT22;64029;48.244;9.188;2024-02-16T11:46:56;10.40;93.70
75451;DHT22;64029;48.244;9.188;2024-02-16T11:49:22;10.70;92.10
75451;DHT22;64029;48.244;9.188;2024-02-16T11:51:49;10.70;92.20
75451;DHT22;64029;48.244;9.188;2024-02-16T11:54:16;10.80;92.00
75451;DHT22;64029;48.244;9.188;2024-02-16T11:56:44;10.90;91.50
75451;DHT22;64029;48.244;9.188;2024-02-16T11:59:13;10.90;91.90
75451;DHT22;64029;48.244;9.188;2024-02-16T12:01:54;11.00;91.70
75451;DHT22;64029;48.244;9.188;2024-02-16T12:04:25;11.00;92.30
75451;DHT22;64029;48.244;9.188;2024-02-16T12:06:54;11.30;91.60
75451;DHT22;64029;48.244;9.188;2024-02-16T12:09:21;11.30;91.10
75451;DHT22;64029;48.244;9.188;2024-02-16T12:11:50;11.50;90.50
75451;DHT22;64029;48.244;9.188;2024-02-16T12:14:19;11.60;90.30
75451;DHT22;64029;48.244;9.188;2024-02-16T12:16:47;11.50;90.70
75451;DHT22;64029;48.244;9.188;2024-02-16T12:19:15;11.50;90.80
75451;DHT22;64029;48.244;9.188;2024-02-16T12:21:42;11.40;91.60
75451;DHT22;64029;48.244;9.188;2024-02-16T12:24:09;11.50;91.10
75451;DHT22;64029;48.244;9.188;2024-02-16T12:26:36;11.60;90.90
75451;DHT22;64029;48.244;9.188;2024-02-16T12:29:03;11.70;91.00
75451;DHT22;64029;48.244;9.188;2024-02-16T12:31:31;11.80;91.20
75451;DHT22;64029;48.244;9.188;2024-02-16T12:33:58;11.80;91.20
75451;DHT22;64029;48.244;9.188;2024-02-16T12:36:25;12.00;90.80
75451;DHT22;64029;48.244;9.188;2024-02-16T12:38:53;12.00;90.70
75451;DHT22;64029;48.244;9.188;2024-02-16T12:41:20;12.00;90.70
75451;DHT22;64029;48.244;9.188;2024-02-16T12:43:46;12.20;90.80
75451;DHT22;64029;48.244;9.188;2024-02-16T12:46:13;12.20;90.60
75451;DHT22;64029;48.244;9.188;2024-02-16T12:48:42;12.20;90.40
75451;DHT22;64029;48.244;9.188;2024-02-16T12:51:09;12.20;90.40
75451;DHT22;64029;48.244;9.188;2024-02-16T12:53:36;12.10;91.10
75451;DHT22;64029;48.244;9.188;2024-02-16T12:56:06;12.10;91.00
75451;DHT22;64029;48.244;9.188;2024-02-16T12:58:33;12.20;90.70
75451;DHT22;64029;48.244;9.188;2024-02-16T13:01:00;12.20;90.90
75451;DHT22;64029;48.244;9.188;2024-02-16T13:03:28;12.10;91.40
75451;DHT22;64029;48.244;9.188;2024-02-16T13:05:56;12.10;91.70
75451;DHT22;64029;48.244;9.188;2024-02-16T13:08:23;12.00;92.40
75451;DHT22;64029;48.244;9.188;2024-02-16T13:10:50;12.00;91.70
75451;DHT22;64029;48.244;9.188;2024-02-16T13:13:16;12.00;92.70
75451;DHT22;64029;48.244;9.188;2024-02-16T13:15:43;12.00;92.60
75451;DHT22;64029;48.244;9.188;2024-02-16T13:18:09;12.10;92.10
75451;DHT22;64029;48.244;9.188;2024-02-16T13:20:36;12.10;91.50
75451;DHT22;64029;48.244;9.188;2024-02-16T13:23:04;12.10;91.10
75451;DHT22;64029;48.244;9.188;2024-02-16T13:25:31;12.10;90.70
75451;DHT22;64029;48.244;9.188;2024-02-16T13:27:58;12.20;89.50
75451;DHT22;64029;48.244;9.188;2024-02-16T13:30:25;12.20;89.80
75451;DHT22;64029;48.244;9.188;2024-02-16T13:32:53;12.20;90.60
75451;DHT22;64029;48.244;9.188;2024-02-16T13:35:20;12.10;91.70
75451;DHT22;64029;48.244;9.188;2024-02-16T13:37:47;12.10;91.90
75451;DHT22;64029;48.244;9.188;2024-02-16T13:40:15;12.20;90.50
75451;DHT22;64029;48.244;9.188;2024-02-16T13:42:43;12.20;89.30
75451;DHT22;64029;48.244;9.188;2024-02-16T13:45:11;12.20;90.20
75451;DHT22;64029;48.244;9.188;2024-02-16T13:47:37;12.20;90.40
75451;DHT22;64029;48.244;9.188;2024-02-16T13:50:06;12.20;90.10
75451;DHT22;64029;48.244;9.188;2024-02-16T13:52:33;12.20;90.90
75451;DHT22;64029;48.244;9.188;2024-02-16T13:55:00;12.20;89.80
75451;DHT22;64029;48.244;9.188;2024-02-16T13:57:29;12.20;90.20
75451;DHT22;64029;48.244;9.188;2024-02-16T13:59:55;12.20;90.00
75451;DHT22;64029;48.244;9.188;2024-02-16T14:02:22;12.20;88.20
75451;DHT22;64029;48.244;9.188;2024-02-16T14:04:49;12.20;89.40
75451;DHT22;64029;48.244;9.188;2024-02-16T14:07:16;12.30;88.90
75451;DHT22;64029;48.244;9.188;2024-02-16T14:09:43;12.30;89.10
75451;DHT22;64029;48.244;9.188;2024-02-16T14:12:10;12.40;88.30
75451;DHT22;64029;48.244;9.188;2024-02-16T14:14:38;12.40;90.00
75451;DHT22;64029;48.244;9.188;2024-02-16T14:17:05;12.30;90.60
75451;DHT22;64029;48.244;9.188;2024-02-16T14:19:32;12.30;90.50
75451;DHT22;64029;48.244;9.188;2024-02-16T14:22:02;12.30;91.00
75451;DHT22;64029;48.244;9.188;2024-02-16T14:24:31;12.30;90.40
75451;DHT22;64029;48.244;9.188;2024-02-16T14:26:58;12.40;89.40
75451;DHT22;64029;48.244;9.188;2024-02-16T14:29:25;12.50;89.40
75451;DHT22;64029;48.244;9.188;2024-02-16T14:31:53;12.50;89.30
75451;DHT22;64029;48.244;9.188;2024-02-16T14:34:23;12.40;90.90
75451;DHT22;64029;48.244;9.188;2024-02-16T14:36:50;12.50;88.80
75451;DHT22;64029;48.244;9.188;2024-02-16T14:39:17;12.50;89.10
75451;DHT22;64029;48.244;9.188;2024-02-16T14:41:43;12.40;90.00
75451;DHT22;64029;48.244;9.188;2024-02-16T14:44:10;12.40;90.70
75451;DHT22;64029;48.244;9.188;2024-02-16T14:46:37;12.40;90.60
75451;DHT22;64029;48.244;9.188;2024-02-16T14:49:05;12.50;88.20
75451;DHT22;64029;48.244;9.188;2024-02-16T14:51:34;12.50;88.80
75451;DHT22;64029;48.244;9.188;2024-02-16T14:54:00;12.50;90.20
75451;DHT22;64029;48.244;9.188;2024-02-16T14:56:29;12.50;90.10
75451;DHT22;64029;48.244;9.188;2024-02-16T14:58:56;12.50;89.50
75451;DHT22;64029;48.244;9.188;2024-02-16T15:01:23;12.50;90.00
75451;DHT22;64029;48.244;9.188;2024-02-16T15:03:50;12.50;87.80
75451;DHT22;64029;48.244;9.188;2024-02-16T15:06:18;12.50;88.30
75451;DHT22;64029;48.244;9.188;2024-02-16T15:08:44;12.40;89.50
75451;DHT22;64029;48.244;9.188;2024-02-16T15:11:11;12.40;89.70
75451;DHT22;64029;48.244;9.188;2024-02-16T15:13:38;12.40;89.80
75451;DHT22;64029;48.244;9.188;2024-02-16T15:16:06;12.40;90.00
75451;DHT22;64029;48.244;9.188;2024-02-16T15:18:34;12.40;89.10
75451;DHT22;64029;48.244;9.188;2024-02-16T15:21:01;12.40;90.10
75451;DHT22;64029;48.244;9.188;2024-02-16T15:23:30;12.40;89.10
75451;DHT22;64029;48.244;9.188;2024-02-16T15:25:57;12.40;90.00
75451;DHT22;64029;48.244;9.188;2024-02-16T15:28:25;12.30;90.00
75451;DHT22;64029;48.244;9.188;2024-02-16T15:30:52;12.30;90.20
75451;DHT22;64029;48.244;9.188;2024-02-16T15:33:18;12.30;89.90
75451;DHT22;64029;48.244;9.188;2024-02-16T15:35:45;12.30;89.80
75451;DHT22;64029;48.244;9.188;2024-02-16T15:38:12;12.30;90.10
75451;DHT22;64029;48.244;9.188;2024-02-16T15:40:40;12.30;90.00
75451;DHT22;64029;48.244;9.188;2024-02-16T15:43:07;12.30;89.60
75451;DHT22;64029;48.244;9.188;2024-02-16T15:45:37;12.30;89.70